createdAt,value
2023-11-14T00:01:13.913Z,100006.31
2023-11-14T00:03:40.617Z,99996.78
2023-11-14T00:06:07.447Z,99988.00
2023-11-14T00:08:34.021Z,99984.56
2023-11-14T00:11:00.733Z,99981.91
2023-11-14T00:13:27.742Z,99983.53
2023-11-14T00:15:54.485Z,99976.13
2023-11-14T00:18:21.184Z,99968.16
2023-11-14T00:20:47.858Z,99963.44
2023-11-14T00:23:14.472Z,99971.97
2023-11-14T00:25:41.101Z,99955.81
2023-11-14T00:28:07.708Z,99955.81
2023-11-14T00:30:34.317Z,99952.34
2023-11-14T00:33:00.972Z,99944.75
2023-11-14T00:35:27.622Z,99949.22
2023-11-14T00:37:54.336Z,99949.22
2023-11-14T00:40:20.974Z,99966.97
2023-11-14T00:42:47.625Z,99963.28
2023-11-14T00:45:14.251Z,99971.25
2023-11-14T00:47:40.926Z,99975.50
2023-11-14T00:50:08.822Z,99970.44
2023-11-14T00:52:35.492Z,99970.44
2023-11-14T00:55:02.093Z,99967.78
2023-11-14T00:57:28.950Z,99974.72
2023-11-14T00:59:55.589Z,99980.53
2023-11-14T01:02:22.257Z,99980.31
2023-11-14T01:04:48.997Z,99967.06
2023-11-14T01:07:15.624Z,99982.94
2023-11-14T01:09:42.195Z,99966.25
2023-11-14T01:12:08.873Z,99973.47
2023-11-14T01:14:35.449Z,99971.09
2023-11-14T01:17:02.151Z,99961.81
2023-11-14T01:19:28.895Z,99958.38
2023-11-14T01:21:55.481Z,99946.50
2023-11-14T01:24:22.064Z,99946.28
2023-11-14T01:26:48.692Z,99943.34
2023-11-14T01:29:15.242Z,99924.78
2023-11-14T01:31:41.874Z,99922.94
2023-11-14T01:34:08.565Z,99921.13
2023-11-14T01:36:35.142Z,99919.25
2023-11-14T01:39:01.726Z,99903.59
2023-11-14T01:41:28.412Z,99902.56
2023-11-14T01:43:55.098Z,99887.97
2023-11-14T01:46:22.007Z,99887.34
2023-11-14T01:48:51.025Z,99890.31
2023-11-14T01:51:19.475Z,99887.69
2023-11-14T01:53:49.705Z,99886.88
2023-11-14T01:56:17.207Z,99875.22
2023-11-14T01:58:44.454Z,99872.03
2023-11-14T02:01:11.798Z,99891.94
2023-11-14T02:03:38.521Z,99866.47
2023-11-14T02:06:05.340Z,99865.66
2023-11-14T02:08:32.502Z,99868.09
2023-11-14T02:10:59.891Z,99889.78
2023-11-14T02:13:26.756Z,99898.56
2023-11-14T02:15:53.343Z,99905.69
2023-11-14T02:18:20.990Z,99921.81
2023-11-14T02:20:47.748Z,99908.34
2023-11-14T02:23:17.406Z,99920.53
2023-11-14T02:25:45.176Z,99931.16
2023-11-14T02:28:12.137Z,99942.00
2023-11-14T02:30:38.940Z,99939.09
2023-11-14T02:33:06.519Z,99942.31
2023-11-14T02:35:33.099Z,99940.69
2023-11-14T02:37:59.945Z,99943.91
2023-11-14T02:40:26.903Z,99923.50
2023-11-14T02:42:53.552Z,99916.38
2023-11-14T02:45:20.947Z,99931.22
2023-11-14T02:47:48.117Z,99927.50
2023-11-14T02:50:30.545Z,99916.91
2023-11-14T02:52:57.250Z,99923.59
2023-11-14T02:55:23.804Z,99909.75
2023-11-14T02:57:50.381Z,99917.00
2023-11-14T03:00:17.162Z,99910.66
2023-11-14T03:02:44.670Z,99884.69
2023-11-14T03:05:11.577Z,99867.72
2023-11-14T03:07:38.210Z,99838.56
2023-11-14T03:10:05.353Z,99819.19
2023-11-14T03:12:32.038Z,99844.94
2023-11-14T03:14:58.641Z,99840.41
2023-11-14T03:17:25.571Z,99857.13
2023-11-14T03:19:52.274Z,99873.03
2023-11-14T03:22:18.904Z,99877.31
2023-11-14T03:24:45.489Z,99875.69
2023-11-14T03:27:12.103Z,99890.56
2023-11-14T03:29:38.690Z,99871.19
2023-11-14T03:32:05.707Z,99858.47
2023-11-14T03:34:32.400Z,99862.75
2023-11-14T03:36:59.066Z,99846.31
2023-11-14T03:39:25.651Z,99832.69
2023-11-14T03:41:52.229Z,99836.22
2023-11-14T03:44:18.848Z,99844.44
2023-11-14T03:46:45.510Z,99846.00
2023-11-14T03:49:12.143Z,99830.09
2023-11-14T03:51:38.754Z,99820.00
2023-11-14T03:54:05.472Z,99818.69
2023-11-14T03:56:32.033Z,99831.94
2023-11-14T03:58:58.681Z,99828.75
2023-11-14T04:01:25.320Z,99824.00
2023-11-14T04:03:52.064Z,99829.28
2023-11-14T04:06:18.817Z,99827.72
2023-11-14T04:08:45.468Z,99831.72
2023-11-14T04:11:12.104Z,99831.72
2023-11-14T04:13:38.820Z,99827.22
2023-11-14T04:16:09.547Z,99821.69
2023-11-14T04:18:37.100Z,99809.22
2023-11-14T04:21:04.141Z,99802.31
2023-11-14T04:23:30.724Z,99792.50
2023-11-14T04:25:57.467Z,99778.19
2023-11-14T04:28:24.084Z,99790.34
2023-11-14T04:30:50.607Z,99816.84
2023-11-14T04:33:17.283Z,99826.66
2023-11-14T04:35:43.940Z,99815.50
2023-11-14T04:38:10.574Z,99795.31
2023-11-14T04:40:37.279Z,99797.19
2023-11-14T04:43:03.930Z,99789.25
2023-11-14T04:45:30.710Z,99808.03
2023-11-14T04:47:58.491Z,99826.59
2023-11-14T04:50:25.166Z,99833.50
2023-11-14T04:52:51.766Z,99834.31
2023-11-14T04:55:18.400Z,99827.41
2023-11-14T04:57:45.053Z,99810.22
2023-11-14T05:00:11.931Z,99815.50
2023-11-14T05:02:38.567Z,99806.75
2023-11-14T05:05:05.755Z,99803.88
2023-11-14T05:07:32.409Z,99802.50
2023-11-14T05:09:59.447Z,99798.78
2023-11-14T05:12:26.145Z,99796.94
2023-11-14T05:14:52.742Z,99783.69
2023-11-14T05:17:19.470Z,99788.19
2023-11-14T05:19:48.651Z,99779.66
2023-11-14T05:22:15.614Z,99761.38
2023-11-14T05:24:42.205Z,99759.53
2023-11-14T05:27:08.775Z,99752.63
2023-11-14T05:29:37.636Z,99745.72
2023-11-14T05:32:05.081Z,99741.47
2023-11-14T05:34:31.765Z,99725.00
2023-11-14T05:36:58.375Z,99733.97
2023-11-14T05:39:24.995Z,99750.38
2023-11-14T05:41:51.676Z,99728.38
2023-11-14T05:44:18.259Z,99719.09
2023-11-14T05:46:44.890Z,99721.72
2023-11-14T05:49:12.321Z,99705.25
2023-11-14T05:51:39.055Z,99688.34
2023-11-14T05:54:06.252Z,99680.59
2023-11-14T05:56:32.925Z,99688.53
2023-11-14T05:58:59.540Z,99693.28
2023-11-14T06:01:26.171Z,99710.25
2023-11-14T06:03:52.904Z,99716.34
2023-11-14T06:06:19.635Z,99709.47
2023-11-14T06:08:46.218Z,99685.63
2023-11-14T06:11:16.571Z,99667.31
2023-11-14T06:13:45.084Z,99662.81
2023-11-14T06:16:11.991Z,99665.72
2023-11-14T06:18:38.643Z,99660.66
2023-11-14T06:21:05.498Z,99640.78
2023-11-14T06:23:32.100Z,99640.19
2023-11-14T06:25:59.005Z,99644.19
2023-11-14T06:28:25.622Z,99639.16
2023-11-14T06:30:52.194Z,99643.66
2023-11-14T06:33:18.783Z,99641.25
2023-11-14T06:35:45.372Z,99633.56
2023-11-14T06:38:11.966Z,99619.75
2023-11-14T06:40:38.658Z,99614.44
2023-11-14T06:43:05.309Z,99617.03
2023-11-14T06:45:31.910Z,99612.56
2023-11-14T06:47:58.789Z,99617.03
2023-11-14T06:50:33.906Z,99615.19
2023-11-14T06:53:08.790Z,99598.75
2023-11-14T06:55:35.411Z,99594.47
2023-11-14T06:58:02.093Z,99596.34
2023-11-14T07:00:28.804Z,99592.06
2023-11-14T07:02:55.507Z,99609.03
2023-11-14T07:05:22.251Z,99610.09
2023-11-14T07:07:48.995Z,99607.66
2023-11-14T07:10:15.644Z,99601.59
2023-11-14T07:12:42.238Z,99593.59
2023-11-14T07:15:09.342Z,99606.03
2023-11-14T07:17:36.120Z,99611.03
2023-11-14T07:20:03.763Z,99621.06
2023-11-14T07:22:30.582Z,99612.56
2023-11-14T07:24:57.203Z,99612.03
2023-11-14T07:27:23.853Z,99616.97
2023-11-14T07:29:50.426Z,99634.72
2023-11-14T07:32:17.121Z,99635.53
2023-11-14T07:34:43.768Z,99636.34
2023-11-14T07:37:10.365Z,99627.03
2023-11-14T07:39:36.972Z,99637.63
2023-11-14T07:42:03.796Z,99649.03
2023-11-14T07:44:30.378Z,99630.50
2023-11-14T07:47:07.802Z,99639.47
2023-11-14T07:49:42.474Z,99648.69
2023-11-14T07:52:09.089Z,99651.13
2023-11-14T07:54:35.877Z,99646.06
2023-11-14T07:57:02.513Z,99652.66
2023-11-14T07:59:30.692Z,99650.06
2023-11-14T08:01:57.608Z,99641.88
2023-11-14T08:04:24.481Z,99623.09
2023-11-14T08:06:51.572Z,99622.84
2023-11-14T08:09:18.199Z,99620.78
2023-11-14T08:11:44.810Z,99612.84
2023-11-14T08:14:11.447Z,99606.19
2023-11-14T08:16:38.081Z,99590.06
2023-11-14T08:19:04.747Z,99593.75
2023-11-14T08:21:31.350Z,99580.81
2023-11-14T08:23:57.986Z,99585.06
2023-11-14T08:26:24.689Z,99561.00
2023-11-14T08:28:51.370Z,99561.22
2023-11-14T08:31:18.169Z,99554.41
2023-11-14T08:33:44.775Z,99553.09
2023-11-14T08:36:11.464Z,99544.66
2023-11-14T08:38:38.102Z,99546.78
2023-11-14T08:41:05.257Z,99538.63
2023-11-14T08:43:31.949Z,99563.00
2023-11-14T08:45:58.627Z,99563.28
2023-11-14T08:48:25.256Z,99565.72
2023-11-14T08:50:54.718Z,99566.75
2023-11-14T08:53:21.757Z,99569.69
2023-11-14T08:55:48.509Z,99609.19
2023-11-14T08:58:15.128Z,99575.03
2023-11-14T09:00:41.718Z,99572.66
2023-11-14T09:03:08.677Z,99577.66
2023-11-14T09:05:35.875Z,99589.03
2023-11-14T09:08:02.867Z,99606.06
2023-11-14T09:10:29.434Z,99594.41
2023-11-14T09:12:55.985Z,99583.47
2023-11-14T09:15:22.606Z,99565.88
2023-11-14T09:17:53.113Z,99547.44
2023-11-14T09:20:22.193Z,99556.22
2023-11-14T09:22:48.785Z,99520.22
2023-11-14T09:25:15.831Z,99510.75
2023-11-14T09:27:42.958Z,99508.66
2023-11-14T09:30:10.072Z,99507.34
2023-11-14T09:32:36.922Z,99498.63
2023-11-14T09:35:03.988Z,99517.53
2023-11-14T09:37:30.725Z,99514.88
2023-11-14T09:39:57.318Z,99519.41
2023-11-14T09:42:23.979Z,99532.13
2023-11-14T09:44:50.823Z,99535.56
2023-11-14T09:47:17.480Z,99546.19
2023-11-14T09:49:44.348Z,99527.88
2023-11-14T09:52:13.857Z,99535.28
2023-11-14T09:54:43.396Z,99532.84
2023-11-14T09:57:10.707Z,99535.50
2023-11-14T09:59:39.106Z,99547.94
2023-11-14T10:02:05.978Z,99550.78
2023-11-14T10:04:32.646Z,99565.91
2023-11-14T10:06:59.705Z,99574.16
2023-11-14T10:09:27.001Z,99580.78
2023-11-14T10:12:12.630Z,99576.84
2023-11-14T10:14:43.948Z,99581.38
2023-11-14T10:17:10.512Z,99606.00
2023-11-14T10:19:37.101Z,99616.09
2023-11-14T10:22:04.583Z,99610.03
2023-11-14T10:24:31.257Z,99605.84
2023-11-14T10:26:57.984Z,99636.03
2023-11-14T10:29:24.732Z,99664.63
2023-11-14T10:31:52.819Z,99693.25
2023-11-14T10:34:25.700Z,99709.41
2023-11-14T10:36:52.875Z,99743.91
2023-11-14T10:39:19.473Z,99782.72
2023-11-14T10:41:46.700Z,99840.25
2023-11-14T10:44:14.293Z,99885.06
2023-11-14T10:46:50.949Z,99911.09
2023-11-14T10:49:17.973Z,99959.88
2023-11-14T10:51:47.201Z,99977.16
2023-11-14T10:54:14.537Z,100025.13
2023-11-14T10:56:48.943Z,100069.97
2023-11-14T10:59:19.519Z,100091.28
2023-11-14T11:01:47.342Z,100124.16
2023-11-14T11:04:15.895Z,100157.91
2023-11-14T11:06:43.168Z,100186.97
2023-11-14T11:09:09.725Z,100192.88
2023-11-14T11:11:44.435Z,100196.44
2023-11-14T11:14:14.344Z,100215.47
2023-11-14T11:16:46.058Z,100210.28
2023-11-14T11:19:25.354Z,100217.94
2023-11-14T11:22:06.675Z,100222.78
2023-11-14T11:24:41.084Z,100222.63
2023-11-14T11:27:14.811Z,100216.63
2023-11-14T11:29:59.801Z,100219.69
2023-11-14T11:32:34.862Z,100227.81
2023-11-14T11:35:34.014Z,100219.03
2023-11-14T11:38:11.319Z,100233.44
2023-11-14T11:41:09.553Z,100220.84
2023-11-14T11:43:39.670Z,100222.91
2023-11-14T11:46:35.312Z,100241.81
2023-11-14T11:49:11.025Z,100258.66
2023-11-14T11:51:45.160Z,100260.28
2023-11-14T11:54:30.354Z,100278.38
2023-11-14T11:57:05.773Z,100270.91
2023-11-14T11:59:41.555Z,100275.16
2023-11-14T12:02:12.519Z,100267.28
2023-11-14T12:04:40.236Z,100261.59
2023-11-14T12:07:07.554Z,100274.53
2023-11-14T12:09:34.172Z,100279.06
2023-11-14T12:12:01.218Z,100282.28
2023-11-14T12:14:27.912Z,100282.00
2023-11-14T12:16:54.593Z,100275.44
2023-11-14T12:19:21.202Z,100273.59
2023-11-14T12:21:47.853Z,100277.34
2023-11-14T12:24:15.338Z,100287.97
2023-11-14T12:26:42.107Z,100290.69
2023-11-14T12:29:09.898Z,100294.16
2023-11-14T12:31:36.801Z,100302.22
2023-11-14T12:34:03.953Z,100300.94
2023-11-14T12:36:30.607Z,100306.47
2023-11-14T12:39:12.871Z,100295.38
2023-11-14T12:41:48.613Z,100299.31
2023-11-14T12:44:15.766Z,100300.13
2023-11-14T12:46:42.975Z,100318.63
2023-11-14T12:49:14.308Z,100315.06
2023-11-14T12:51:48.748Z,100314.38
2023-11-14T12:54:20.209Z,100326.84
2023-11-14T12:56:47.425Z,100320.84
2023-11-14T12:59:14.206Z,100303.41
2023-11-14T13:01:42.578Z,100322.63
2023-11-14T13:04:13.053Z,100311.19
2023-11-14T13:06:42.274Z,100312.00
2023-11-14T13:09:08.941Z,100314.34
2023-11-14T13:11:36.151Z,100319.06
2023-11-14T13:14:04.007Z,100336.81
2023-11-14T13:16:30.831Z,100325.56
2023-11-14T13:18:57.902Z,100322.72
2023-11-14T13:21:24.893Z,100321.84
2023-11-14T13:23:52.178Z,100323.22
2023-11-14T13:26:18.925Z,100328.66
2023-11-14T13:28:45.618Z,100322.03
2023-11-14T13:31:12.170Z,100337.94
2023-11-14T13:33:38.872Z,100359.28
2023-11-14T13:36:05.988Z,100360.50
2023-11-14T13:38:33.888Z,100355.44
2023-11-14T13:41:01.252Z,100319.72
2023-11-14T13:43:28.040Z,100297.59
2023-11-14T13:45:54.814Z,100272.00
2023-11-14T13:48:21.592Z,100273.81
2023-11-14T13:50:48.867Z,100267.94
2023-11-14T13:53:16.276Z,100266.16
2023-11-14T13:55:42.862Z,100285.97
2023-11-14T13:58:09.586Z,100300.13
2023-11-14T14:00:36.262Z,100320.06
2023-11-14T14:03:03.059Z,100353.50
2023-11-14T14:05:29.843Z,100385.63
2023-11-14T14:07:56.622Z,100405.44
2023-11-14T14:10:23.323Z,100439.31
2023-11-14T14:12:49.962Z,100431.28
2023-11-14T14:15:16.621Z,100442.38
2023-11-14T14:17:45.650Z,100437.16
2023-11-14T14:20:12.854Z,100461.41
2023-11-14T14:22:39.588Z,100464.16
2023-11-14T14:25:10.335Z,100486.75
2023-11-14T14:27:37.780Z,100485.50
2023-11-14T14:30:05.521Z,100485.84
2023-11-14T14:32:32.539Z,100483.66
2023-11-14T14:34:59.751Z,100499.22
2023-11-14T14:37:26.886Z,100492.38
2023-11-14T14:39:55.601Z,100498.88
2023-11-14T14:42:22.178Z,100519.84
2023-11-14T14:44:48.801Z,100506.38
2023-11-14T14:47:15.471Z,100515.81
2023-11-14T14:49:42.893Z,100520.66
2023-11-14T14:52:09.499Z,100520.22
2023-11-14T14:54:39.316Z,100519.63
2023-11-14T14:57:06.705Z,100532.19
2023-11-14T14:59:33.388Z,100544.09
2023-11-14T15:02:00.118Z,100533.38
2023-11-14T15:04:27.377Z,100536.03
2023-11-14T15:06:54.281Z,100545.91
2023-11-14T15:09:20.825Z,100548.66
2023-11-14T15:11:47.399Z,100550.75
2023-11-14T15:14:14.124Z,100558.94
2023-11-14T15:16:40.813Z,100558.84
2023-11-14T15:19:07.613Z,100560.66
2023-11-14T15:21:34.251Z,100563.75
2023-11-14T15:24:00.867Z,100569.31
2023-11-14T15:26:27.574Z,100577.81
2023-11-14T15:28:54.235Z,100572.53
2023-11-14T15:31:20.913Z,100576.56
2023-11-14T15:33:47.640Z,100575.41
2023-11-14T15:36:14.319Z,100590.97
2023-11-14T15:38:40.921Z,100585.16
2023-11-14T15:41:07.624Z,100599.34
2023-11-14T15:43:34.304Z,100610.38
2023-11-14T15:46:00.983Z,100638.78
2023-11-14T15:48:27.622Z,100626.44
2023-11-14T15:50:54.250Z,100637.13
2023-11-14T15:53:20.832Z,100639.19
2023-11-14T15:55:47.490Z,100631.66
2023-11-14T15:58:14.120Z,100631.53
2023-11-14T16:00:40.681Z,100631.63
2023-11-14T16:03:07.312Z,100639.78
2023-11-14T16:05:34.034Z,100643.69
2023-11-14T16:08:00.953Z,100636.78
2023-11-14T16:10:27.605Z,100636.34
2023-11-14T16:12:54.225Z,100641.84
2023-11-14T16:15:20.909Z,100654.06
2023-11-14T16:17:47.760Z,100635.53
2023-11-14T16:20:14.608Z,100624.72
2023-11-14T16:22:41.252Z,100640.59
2023-11-14T16:25:08.243Z,100642.88
2023-11-14T16:27:34.859Z,100664.75
2023-11-14T16:30:01.818Z,100656.66
2023-11-14T16:32:28.557Z,100666.47
2023-11-14T16:34:55.185Z,100685.47
2023-11-14T16:37:21.787Z,100690.84
2023-11-14T16:39:48.318Z,100693.69
2023-11-14T16:42:14.935Z,100703.88
2023-11-14T16:44:41.635Z,100714.13
2023-11-14T16:47:08.364Z,100703.56
2023-11-14T16:49:35.713Z,100715.03
2023-11-14T16:52:02.373Z,100706.53
2023-11-14T16:54:28.975Z,100704.34
2023-11-14T16:56:55.525Z,100704.19
2023-11-14T16:59:22.206Z,100697.66
2023-11-14T17:01:48.801Z,100700.16
2023-11-14T17:04:15.468Z,100684.94
2023-11-14T17:06:42.111Z,100676.63
2023-11-14T17:09:08.696Z,100680.53
2023-11-14T17:11:35.310Z,100680.69
2023-11-14T17:14:02.007Z,100690.34
2023-11-14T17:16:30.140Z,100693.16
2023-11-14T17:18:56.827Z,100697.28
2023-11-14T17:21:24.158Z,100708.03
2023-11-14T17:23:50.783Z,100720.91
2023-11-14T17:26:19.402Z,100726.81
2023-11-14T17:28:46.940Z,100741.88
2023-11-14T17:31:13.524Z,100736.41
2023-11-14T17:33:40.065Z,100751.44
2023-11-14T17:36:07.310Z,100753.28
2023-11-14T17:38:33.993Z,100755.34
2023-11-14T17:41:00.630Z,100752.09
2023-11-14T17:43:27.274Z,100762.06
2023-11-14T17:45:53.870Z,100764.91
2023-11-14T17:48:20.558Z,100764.31
2023-11-14T17:50:47.692Z,100763.94
2023-11-14T17:53:14.555Z,100761.72
2023-11-14T17:55:41.237Z,100771.69
2023-11-14T17:58:07.859Z,100774.50
2023-11-14T18:00:34.617Z,100767.22
2023-11-14T18:03:01.529Z,100771.88
2023-11-14T18:05:29.510Z,100772.13
2023-11-14T18:07:56.445Z,100778.81
2023-11-14T18:10:23.207Z,100782.91
2023-11-14T18:12:50.963Z,100784.56
2023-11-14T18:15:18.016Z,100788.19
2023-11-14T18:17:44.796Z,100796.13
2023-11-14T18:20:14.125Z,100790.03
2023-11-14T18:22:40.915Z,100783.50
2023-11-14T18:25:08.024Z,100775.78
2023-11-14T18:27:34.894Z,100765.22
2023-11-14T18:30:01.682Z,100760.97
2023-11-14T18:32:28.302Z,100765.59
2023-11-14T18:34:54.984Z,100768.88
2023-11-14T18:37:21.588Z,100770.72
2023-11-14T18:39:48.205Z,100768.91
2023-11-14T18:42:14.833Z,100766.47
2023-11-14T18:44:50.741Z,100754.47
2023-11-14T18:47:24.959Z,100756.94
2023-11-14T18:49:51.841Z,100757.13
2023-11-14T18:52:18.445Z,100758.16
2023-11-14T18:54:45.002Z,100750.84
2023-11-14T18:57:11.609Z,100745.16
2023-11-14T18:59:38.223Z,100754.94
2023-11-14T19:02:04.892Z,100762.25
2023-11-14T19:04:31.602Z,100762.66
2023-11-14T19:06:58.262Z,100768.13
2023-11-14T19:09:25.731Z,100754.53
2023-11-14T19:11:52.548Z,100762.25
2023-11-14T19:14:19.162Z,100766.91
2023-11-14T19:16:47.306Z,100770.78
2023-11-14T19:19:14.078Z,100777.28
2023-11-14T19:21:45.286Z,100774.84
2023-11-14T19:24:13.340Z,100774.03
2023-11-14T19:26:40.027Z,100771.19
2023-11-14T19:29:06.658Z,100774.44
2023-11-14T19:31:33.275Z,100765.50
2023-11-14T19:33:59.885Z,100745.78
2023-11-14T19:36:26.469Z,100742.94
2023-11-14T19:38:53.062Z,100740.72
2023-11-14T19:41:19.708Z,100735.19
2023-11-14T19:43:46.901Z,100739.47
2023-11-14T19:46:13.614Z,100731.34
2023-11-14T19:48:40.216Z,100727.72
2023-11-14T19:51:06.817Z,100717.53
2023-11-14T19:53:33.560Z,100728.72
2023-11-14T19:56:00.204Z,100725.06
2023-11-14T19:58:26.847Z,100723.44
2023-11-14T20:00:53.403Z,100724.47
2023-11-14T20:03:20.202Z,100718.34
2023-11-14T20:05:46.924Z,100712.88
2023-11-14T20:08:13.599Z,100724.44
2023-11-14T20:10:40.189Z,100723.66
2023-11-14T20:13:06.809Z,100716.16
2023-11-14T20:15:33.425Z,100725.66
2023-11-14T20:18:00.146Z,100720.38
2023-11-14T20:20:26.804Z,100722.44
2023-11-14T20:22:53.479Z,100717.16
2023-11-14T20:25:20.594Z,100709.63
2023-11-14T20:27:47.179Z,100712.88
2023-11-14T20:30:14.039Z,100721.19
2023-11-14T20:32:40.698Z,100714.09
2023-11-14T20:35:07.622Z,100717.97
2023-11-14T20:37:34.244Z,100720.38
2023-11-14T20:40:00.855Z,100731.19
2023-11-14T20:42:27.443Z,100726.91
2023-11-14T20:44:54.111Z,100730.75
2023-11-14T20:47:20.869Z,100733.00
2023-11-14T20:49:47.499Z,100731.19
2023-11-14T20:52:14.399Z,100727.72
2023-11-14T20:54:40.958Z,100735.66
2023-11-14T20:57:07.609Z,100733.56
2023-11-14T20:59:34.533Z,100738.69
2023-11-14T21:02:01.343Z,100742.94
2023-11-14T21:06:23.653Z,100664.31
2023-11-14T21:08:50.411Z,100616.34
2023-11-14T21:11:17.255Z,100612.06
2023-11-14T21:13:44.046Z,100618.34
2023-11-14T21:16:10.919Z,100624.44
2023-11-14T21:18:37.972Z,100620.81
2023-11-14T21:21:06.076Z,100629.50
2023-11-14T21:23:32.728Z,100625.44
2023-11-14T21:25:59.327Z,100646.56
2023-11-14T21:28:25.963Z,100659.19
2023-11-14T21:30:52.557Z,100665.09
2023-11-14T21:33:19.342Z,100681.78
2023-11-14T21:35:46.031Z,100684.00
2023-11-14T21:38:12.648Z,100688.09
2023-11-14T21:40:39.212Z,100710.66
2023-11-14T21:43:05.813Z,100712.06
2023-11-14T21:45:32.391Z,100711.25
2023-11-14T21:47:59.064Z,100729.75
2023-11-14T21:50:25.762Z,100732.38
2023-11-14T21:52:52.342Z,100748.22
2023-11-14T21:55:19.020Z,100762.44
2023-11-14T21:57:45.581Z,100763.25
2023-11-14T22:00:13.036Z,100758.38
2023-11-14T22:02:39.780Z,100767.34
2023-11-14T22:05:06.683Z,100782.53
2023-11-14T22:07:33.319Z,100796.41
2023-11-14T22:10:03.531Z,100789.47
2023-11-14T22:12:31.329Z,100797.59
2023-11-14T22:14:58.046Z,100805.69
2023-11-14T22:17:24.870Z,100802.88
2023-11-14T22:19:51.704Z,100811.59
2023-11-14T22:22:18.317Z,100820.56
2023-11-14T22:24:44.922Z,100814.25
2023-11-14T22:27:11.549Z,100824.44
2023-11-14T22:29:38.162Z,100830.53
2023-11-14T22:32:05.020Z,100834.38
2023-11-14T22:34:31.559Z,100832.31
2023-11-14T22:36:58.454Z,100842.88
2023-11-14T22:39:25.077Z,100848.38
2023-11-14T22:41:51.675Z,100856.09
2023-11-14T22:44:18.353Z,100852.03
2023-11-14T22:46:45.350Z,100849.56
2023-11-14T22:49:11.918Z,100852.44
2023-11-14T22:51:38.795Z,100842.28
2023-11-14T22:54:05.533Z,100846.94
2023-11-14T22:56:32.461Z,100845.53
2023-11-14T22:58:59.287Z,100846.56
2023-11-14T23:01:26.017Z,100838.81
2023-11-14T23:03:52.711Z,100839.44
2023-11-14T23:06:19.362Z,100829.28
2023-11-14T23:08:46.018Z,100843.47
2023-11-14T23:11:12.761Z,100836.78
2023-11-14T23:13:39.348Z,100821.16
2023-11-14T23:16:06.512Z,100826.66
2023-11-14T23:18:33.655Z,100838.66
2023-11-14T23:21:00.419Z,100831.94
2023-11-14T23:23:27.407Z,100835.78
2023-11-14T23:25:53.984Z,100837.38
2023-11-14T23:28:20.636Z,100845.91
2023-11-14T23:30:47.253Z,100840.84
2023-11-14T23:33:13.902Z,100844.72
2023-11-14T23:35:40.680Z,100845.94
2023-11-14T23:38:07.328Z,100855.31
2023-11-14T23:40:33.923Z,100841.66
2023-11-14T23:43:00.722Z,100836.56
2023-11-14T23:45:27.323Z,100838.22
2023-11-14T23:47:54.034Z,100828.66
2023-11-14T23:50:20.782Z,100816.69
2023-11-14T23:52:48.714Z,100815.88
2023-11-14T23:55:15.792Z,100818.50
2023-11-14T23:57:42.432Z,100819.91
